Time;durP1;ratioP1;P1;durP2;ratioP2;P2;SDS_P1;SDS_P2;PMS_P1;PMS_P2;Temp;Humidity;BMP_temperature;BMP_pressure;BME280_temperature;BME280_humidity;BME280_pressure;Samples;Min_cycle;Max_cycle;Signal;HPM_P1;HPM_P2
2021/06/05 00:00:56;;;;;;;9.48;8.23;;;20.80;99.90;;;;;;4142354;28;20042;-84
2021/06/05 00:02:57;;;;;;;12.05;8.98;;;20.80;99.90;;;;;;4127031;28;20034;-84
2021/06/05 00:04:59;;;;;;;10.93;8.47;;;20.80;99.90;;;;;;4144285;28;20049;-83
2021/06/05 00:07:00;;;;;;;9.35;8.45;;;20.80;99.90;;;;;;4127646;28;20031;-83
2021/06/05 00:09:01;;;;;;;10.50;8.88;;;20.80;99.90;;;;;;4126274;28;21473;-83
2021/06/05 00:11:05;;;;;;;9.90;8.02;;;20.80;99.90;;;;;;4128182;28;20038;-83
2021/06/05 00:13:10;;;;;;;9.85;8.48;;;20.80;99.90;;;;;;4143006;28;20033;-83
2021/06/05 00:15:25;;;;;;;11.50;8.88;;;20.80;99.90;;;;;;4142529;28;20065;-83
2021/06/05 00:17:26;;;;;;;11.30;9.18;;;20.80;99.90;;;;;;4116685;28;20670;-83
2021/06/05 00:19:26;;;;;;;9.82;8.63;;;20.80;99.90;;;;;;4140118;28;20034;-83
2021/06/05 00:21:27;;;;;;;9.65;8.20;;;20.80;99.90;;;;;;4123846;28;20122;-84
2021/06/05 00:23:28;;;;;;;11.25;8.43;;;20.70;99.90;;;;;;4142982;28;20056;-84
2021/06/05 00:25:31;;;;;;;9.57;8.48;;;20.80;99.90;;;;;;4143384;28;20410;-84
2021/06/05 00:27:32;;;;;;;;;;;20.70;99.90;;;;;;4127384;28;20062;-84
2021/06/05 00:29:32;;;;;;;10.65;8.63;;;20.70;99.90;;;;;;4128470;28;20008;-84
2021/06/05 00:31:33;;;;;;;10.60;8.23;;;20.80;99.90;;;;;;4125531;28;20037;-84
2021/06/05 00:33:35;;;;;;;10.85;8.40;;;20.70;99.90;;;;;;4128208;28;20146;-84
2021/06/05 00:35:37;;;;;;;11.87;9.17;;;20.70;99.90;;;;;;4142718;28;21882;-84
2021/06/05 00:37:38;;;;;;;10.75;8.60;;;20.70;99.90;;;;;;4144821;28;20386;-84
2021/06/05 00:39:38;;;;;;;11.80;9.55;;;20.70;99.90;;;;;;4141275;28;20030;-84
2021/06/05 00:41:40;;;;;;;10.57;9.15;;;20.70;99.90;;;;;;4140336;28;20170;-84
2021/06/05 00:43:44;;;;;;;8.87;7.97;;;20.60;99.90;;;;;;4142254;28;20128;-84
2021/06/05 00:45:46;;;;;;;11.55;8.77;;;20.60;99.90;;;;;;4144022;28;20602;-84
2021/06/05 00:47:47;;;;;;;12.18;9.88;;;20.60;99.90;;;;;;4141986;28;20541;-84
2021/06/05 00:49:48;;;;;;;10.02;8.40;;;20.60;99.90;;;;;;4125895;28;20034;-84
2021/06/05 00:51:51;;;;;;;10.40;8.77;;;20.60;99.90;;;;;;4121863;28;20119;-84
2021/06/05 00:53:52;;;;;;;10.25;8.98;;;20.60;99.90;;;;;;4133366;28;20084;-84
2021/06/05 00:55:56;;;;;;;9.88;8.88;;;20.60;99.90;;;;;;4146082;28;20086;-84
2021/06/05 00:57:57;;;;;;;11.82;9.20;;;20.60;99.90;;;;;;4141088;28;20045;-84
2021/06/05 00:59:57;;;;;;;11.82;10.13;;;20.60;99.90;;;;;;4125078;28;20038;-84
2021/06/05 01:01:58;;;;;;;12.70;10.65;;;20.60;99.90;;;;;;4126336;28;20084;-84
2021/06/05 01:03:59;;;;;;;11.20;9.18;;;20.50;99.90;;;;;;4125707;28;20039;-84
2021/06/05 01:06:11;;;;;;;11.43;9.98;;;20.50;99.90;;;;;;4125723;28;20605;-84
2021/06/05 01:08:15;;;;;;;11.20;10.05;;;20.50;99.90;;;;;;4141691;28;20486;-84
2021/06/05 01:10:22;;;;;;;14.07;10.43;;;20.40;99.90;;;;;;4125428;28;20038;-84
2021/06/05 01:12:36;;;;;;;12.23;10.48;;;20.40;99.90;;;;;;4138996;28;20104;-84
2021/06/05 01:14:48;;;;;;;11.52;10.18;;;20.40;99.90;;;;;;4135197;28;20045;-84
2021/06/05 01:16:52;;;;;;;14.48;11.40;;;20.40;99.90;;;;;;4142654;28;20062;-84
2021/06/05 01:18:57;;;;;;;15.00;12.35;;;20.40;99.90;;;;;;4138132;28;20045;-84
2021/06/05 01:21:19;;;;;;;13.75;11.35;;;20.30;99.90;;;;;;4140749;28;20538;-84
2021/06/05 01:23:46;;;;;;;12.95;10.88;;;20.30;99.90;;;;;;4122775;28;20100;-84
2021/06/05 01:26:07;;;;;;;13.88;11.85;;;20.20;99.90;;;;;;4123108;28;20114;-84
2021/06/05 01:28:16;;;;;;;13.00;11.02;;;20.20;99.90;;;;;;4124819;28;20034;-84
2021/06/05 01:30:25;;;;;;;15.13;12.35;;;20.20;99.90;;;;;;4140881;28;20042;-84
2021/06/05 01:32:27;;;;;;;22.08;15.05;;;20.20;99.90;;;;;;4144810;28;20312;-84
2021/06/05 01:34:31;;;;;;;16.67;14.80;;;20.10;99.90;;;;;;4127931;28;20058;-84
2021/06/05 01:36:36;;;;;;;15.32;13.23;;;20.10;99.90;;;;;;4141593;28;20034;-84
2021/06/05 01:38:49;;;;;;;18.05;15.23;;;20.10;99.90;;;;;;4147190;28;20481;-84
2021/06/05 01:40:51;;;;;;;19.25;14.25;;;20.10;99.90;;;;;;4124524;28;20062;-84
2021/06/05 01:42:53;;;;;;;18.58;14.23;;;20.00;99.90;;;;;;4142331;28;20052;-84
2021/06/05 01:44:57;;;;;;;17.27;14.68;;;20.10;99.90;;;;;;4125747;28;20042;-84
2021/06/05 01:46:57;;;;;;;18.85;14.10;;;20.10;99.90;;;;;;4142296;28;20153;-84
2021/06/05 01:48:58;;;;;;;15.45;13.60;;;20.00;99.90;;;;;;4142830;28;20069;-84
2021/06/05 01:51:06;;;;;;;16.23;13.48;;;20.10;99.90;;;;;;4120484;28;20034;-84
2021/06/05 01:53:12;;;;;;;21.67;14.82;;;20.10;99.90;;;;;;4142754;28;20072;-84
2021/06/05 01:55:15;;;;;;;17.05;14.00;;;20.10;99.90;;;;;;4143631;28;20034;-84
2021/06/05 01:57:20;;;;;;;16.67;14.40;;;20.10;99.90;;;;;;4142931;28;20049;-84
2021/06/05 01:59:22;;;;;;;15.30;13.05;;;20.10;99.90;;;;;;4126542;28;20035;-84
2021/06/05 02:01:23;;;;;;;18.80;14.70;;;20.10;99.90;;;;;;4144839;28;20044;-84
2021/06/05 02:03:25;;;;;;;19.20;14.30;;;20.10;99.90;;;;;;4126419;28;20038;-84
2021/06/05 02:05:27;;;;;;;17.75;14.88;;;20.10;99.90;;;;;;4130421;28;20049;-84
2021/06/05 02:07:28;;;;;;;16.75;14.13;;;20.10;99.90;;;;;;4126729;28;20050;-84
2021/06/05 02:09:29;;;;;;;16.83;14.52;;;20.10;99.90;;;;;;4142033;28;20027;-84
2021/06/05 02:11:31;;;;;;;16.25;14.35;;;20.20;99.90;;;;;;4129454;28;20078;-84
2021/06/05 02:13:50;;;;;;;16.23;13.77;;;20.10;99.90;;;;;;4146419;28;20127;-84
2021/06/05 02:15:54;;;;;;;16.65;13.75;;;20.20;99.90;;;;;;4143733;28;20119;-84
2021/06/05 02:17:58;;;;;;;18.70;14.35;;;20.20;99.90;;;;;;4125751;28;20034;-84
2021/06/05 02:20:05;;;;;;;18.60;14.27;;;20.20;99.90;;;;;;4144915;28;20522;-84
2021/06/05 02:22:12;;;;;;;16.42;14.35;;;20.20;99.90;;;;;;4142685;28;20034;-84
2021/06/05 02:24:15;;;;;;;21.33;15.55;;;20.10;99.90;;;;;;4145195;28;20030;-84
2021/06/05 02:26:18;;;;;;;16.67;13.85;;;20.10;99.90;;;;;;4148179;28;20034;-84
2021/06/05 02:28:20;;;;;;;17.90;14.63;;;20.10;99.90;;;;;;4125709;28;20039;-84
2021/06/05 02:30:24;;;;;;;17.27;14.32;;;20.10;99.90;;;;;;4143304;28;20041;-84
2021/06/05 02:32:30;;;;;;;17.17;13.98;;;20.10;99.90;;;;;;4145799;28;20185;-84
2021/06/05 02:34:31;;;;;;;19.23;15.15;;;20.10;99.90;;;;;;4148966;28;20038;-84
2021/06/05 02:36:34;;;;;;;18.50;14.90;;;20.10;99.90;;;;;;4145418;28;20045;-84
2021/06/05 02:38:35;;;;;;;;;;;20.10;99.90;;;;;;4147786;28;20115;-84
2021/06/05 02:40:37;;;;;;;16.95;13.32;;;20.00;99.90;;;;;;4145739;28;19945;-84
2021/06/05 02:42:39;;;;;;;17.65;14.88;;;20.00;99.90;;;;;;4127042;28;20039;-84
2021/06/05 02:44:44;;;;;;;18.77;15.52;;;20.00;99.90;;;;;;4130558;28;20065;-84
2021/06/05 02:46:46;;;;;;;22.95;16.65;;;20.00;99.90;;;;;;4141218;28;20068;-84
2021/06/05 02:48:56;;;;;;;20.52;16.40;;;19.90;99.90;;;;;;4141582;28;20057;-84
2021/06/05 02:50:57;;;;;;;20.35;16.40;;;19.90;99.90;;;;;;4141165;28;20088;-84
2021/06/05 02:52:57;;;;;;;23.67;17.77;;;19.80;99.90;;;;;;4129198;28;20077;-84
2021/06/05 02:55:11;;;;;;;21.48;16.25;;;19.80;99.90;;;;;;4148586;28;20041;-84
2021/06/05 02:57:12;;;;;;;22.50;18.27;;;19.80;99.90;;;;;;4125862;28;20422;-84
2021/06/05 02:59:13;;;;;;;26.13;19.38;;;19.80;99.90;;;;;;4126212;28;20053;-84
2021/06/05 03:01:14;;;;;;;22.38;17.25;;;19.70;99.90;;;;;;4127567;28;20171;-84
2021/06/05 03:03:18;;;;;;;20.27;16.60;;;19.70;99.90;;;;;;4125198;28;20030;-84
2021/06/05 03:05:19;;;;;;;22.38;17.65;;;19.80;99.90;;;;;;4126804;28;20034;-84
2021/06/05 03:07:20;;;;;;;19.00;16.10;;;19.80;99.90;;;;;;4142100;28;20057;-84
2021/06/05 03:09:21;;;;;;;23.42;17.48;;;19.80;99.90;;;;;;4144819;28;20037;-83
2021/06/05 03:11:22;;;;;;;19.98;16.45;;;19.80;99.90;;;;;;4126993;28;20042;-83
2021/06/05 03:13:23;;;;;;;19.90;16.25;;;19.70;99.90;;;;;;4146040;28;20121;-83
2021/06/05 03:15:25;;;;;;;19.73;16.48;;;19.70;99.90;;;;;;4145506;28;20065;-83
2021/06/05 03:17:28;;;;;;;17.88;15.35;;;19.70;99.90;;;;;;4143210;28;20065;-83
2021/06/05 03:19:28;;;;;;;18.52;15.57;;;19.80;99.90;;;;;;4144868;28;20052;-84
2021/06/05 03:21:30;;;;;;;19.77;15.75;;;19.80;99.90;;;;;;4143561;28;20038;-84
2021/06/05 03:23:31;;;;;;;18.83;15.63;;;19.70;99.90;;;;;;4143789;28;21836;-84
2021/06/05 03:25:32;;;;;;;24.17;18.08;;;19.70;99.90;;;;;;4130211;28;20403;-84
2021/06/05 03:27:33;;;;;;;20.10;16.20;;;19.70;99.90;;;;;;4142020;28;20112;-84
2021/06/05 03:29:33;;;;;;;18.98;15.02;;;19.70;99.90;;;;;;4127739;28;20049;-84
2021/06/05 03:31:34;;;;;;;21.58;17.55;;;19.70;99.90;;;;;;4126819;28;20030;-84
2021/06/05 03:33:35;;;;;;;22.15;18.10;;;19.60;99.90;;;;;;4143785;28;20065;-84
2021/06/05 03:35:37;;;;;;;20.20;17.30;;;19.60;99.90;;;;;;4126632;28;20048;-84
2021/06/05 03:37:38;;;;;;;18.40;14.65;;;19.50;99.90;;;;;;4144352;28;20034;-84
2021/06/05 03:39:39;;;;;;;20.30;16.90;;;19.50;99.90;;;;;;4142552;28;20552;-84
2021/06/05 03:41:41;;;;;;;18.23;15.18;;;19.40;99.90;;;;;;4145869;28;20053;-84
2021/06/05 03:43:41;;;;;;;22.38;17.40;;;19.40;99.90;;;;;;4148661;28;20034;-84
2021/06/05 03:45:42;;;;;;;20.58;16.45;;;19.40;99.90;;;;;;4147509;28;20056;-84
2021/06/05 03:47:46;;;;;;;19.88;15.50;;;19.30;99.90;;;;;;4144011;28;20041;-84
2021/06/05 03:49:47;;;;;;;25.98;17.75;;;19.30;99.90;;;;;;4128554;28;20053;-84
2021/06/05 03:51:47;;;;;;;22.65;17.08;;;19.30;99.90;;;;;;4124629;28;20458;-84
2021/06/05 03:53:48;;;;;;;22.67;17.08;;;19.30;99.90;;;;;;4129759;28;20456;-84
2021/06/05 03:55:49;;;;;;;23.00;17.95;;;19.40;99.90;;;;;;4145011;28;20038;-84
2021/06/05 03:57:50;;;;;;;24.30;18.05;;;19.30;99.90;;;;;;4141018;28;20390;-84
2021/06/05 03:59:53;;;;;;;22.15;17.67;;;19.40;99.90;;;;;;4145581;28;20160;-84
2021/06/05 04:01:53;;;;;;;23.83;18.05;;;19.40;99.90;;;;;;4146556;28;20564;-84
2021/06/05 04:03:55;;;;;;;21.90;16.15;;;19.30;99.90;;;;;;4142081;28;20065;-84
2021/06/05 04:05:55;;;;;;;23.98;17.70;;;19.30;99.90;;;;;;4146100;28;20136;-84
2021/06/05 04:07:56;;;;;;;23.45;17.20;;;19.40;99.90;;;;;;4143283;28;20037;-84
2021/06/05 04:09:57;;;;;;;25.00;19.20;;;19.40;99.90;;;;;;4130827;28;20201;-84
2021/06/05 04:11:57;;;;;;;24.17;17.10;;;19.30;99.90;;;;;;4125966;28;20054;-84
2021/06/05 04:14:00;;;;;;;22.08;17.38;;;19.30;99.90;;;;;;4144986;28;20096;-83
2021/06/05 04:16:01;;;;;;;20.38;15.63;;;19.40;99.90;;;;;;4140527;28;20084;-83
2021/06/05 04:18:14;;;;;;;23.80;17.85;;;19.40;99.90;;;;;;4127682;28;20049;-83
2021/06/05 04:20:16;;;;;;;24.80;18.40;;;19.40;99.90;;;;;;4143013;28;20107;-84
2021/06/05 04:22:17;;;;;;;21.35;16.75;;;19.50;99.90;;;;;;4142294;28;20519;-83
2021/06/05 04:24:20;;;;;;;22.55;17.40;;;19.50;99.90;;;;;;4128444;28;20511;-83
2021/06/05 04:26:22;;;;;;;20.85;16.55;;;19.50;99.90;;;;;;4142210;28;20030;-83
2021/06/05 04:28:24;;;;;;;22.85;16.90;;;19.50;99.90;;;;;;4124414;28;20462;-83
2021/06/05 04:30:26;;;;;;;;;;;19.50;99.90;;;;;;4147636;28;20125;-84
2021/06/05 04:32:28;;;;;;;20.77;15.93;;;19.50;99.90;;;;;;4123448;28;19917;-84
2021/06/05 04:34:29;;;;;;;20.38;15.98;;;19.50;99.90;;;;;;4126608;28;20039;-84
2021/06/05 04:36:30;;;;;;;19.77;15.80;;;19.60;99.90;;;;;;4142246;28;20113;-84
2021/06/05 04:38:31;;;;;;;20.17;16.88;;;19.60;99.90;;;;;;4144353;28;20126;-83
2021/06/05 04:40:32;;;;;;;25.58;19.10;;;19.60;99.90;;;;;;4140603;28;20038;-83
2021/06/05 04:42:33;;;;;;;20.15;15.88;;;19.50;99.90;;;;;;4127185;28;20603;-83
2021/06/05 04:44:34;;;;;;;21.67;16.27;;;19.50;99.90;;;;;;4126457;28;20154;-83
2021/06/05 04:46:34;;;;;;;21.23;16.48;;;19.60;99.90;;;;;;4128409;28;20530;-83
2021/06/05 04:48:35;;;;;;;24.10;18.58;;;19.60;99.90;;;;;;4145170;28;20109;-83
2021/06/05 04:50:37;;;;;;;20.33;16.17;;;19.60;99.90;;;;;;4146005;28;20106;-83
2021/06/05 04:52:38;;;;;;;18.52;14.70;;;19.60;99.90;;;;;;4128810;28;20477;-83
2021/06/05 04:54:39;;;;;;;24.67;18.02;;;19.70;99.90;;;;;;4143771;28;20042;-83
2021/06/05 04:56:46;;;;;;;22.38;16.75;;;19.60;99.90;;;;;;4128076;28;20030;-83
2021/06/05 04:58:47;;;;;;;22.45;16.50;;;19.60;99.90;;;;;;4144887;28;20060;-84
2021/06/05 05:00:50;;;;;;;21.02;16.13;;;19.70;99.90;;;;;;4144041;28;20048;-84
2021/06/05 05:02:51;;;;;;;21.27;15.32;;;19.70;99.90;;;;;;4143939;28;20030;-84
2021/06/05 05:04:51;;;;;;;20.88;15.93;;;19.70;99.90;;;;;;4143176;28;20030;-84
2021/06/05 05:06:52;;;;;;;21.70;16.33;;;19.80;99.90;;;;;;4127539;28;20048;-84
2021/06/05 05:08:53;;;;;;;19.83;15.35;;;19.80;99.90;;;;;;4127601;28;20042;-83
2021/06/05 05:10:59;;;;;;;20.45;15.23;;;19.80;99.90;;;;;;4145305;28;20072;-84
2021/06/05 05:13:01;;;;;;;22.83;16.42;;;19.80;99.90;;;;;;4125924;28;20193;-82
2021/06/05 05:15:03;;;;;;;20.65;15.38;;;19.80;99.90;;;;;;4141104;28;20392;-82
2021/06/05 05:17:05;;;;;;;20.27;14.32;;;19.90;99.90;;;;;;4127758;28;20498;-82
2021/06/05 05:19:06;;;;;;;20.98;14.50;;;19.90;99.90;;;;;;4141520;28;20113;-82
2021/06/05 05:21:07;;;;;;;26.13;17.95;;;19.90;99.90;;;;;;4126817;28;20042;-82
2021/06/05 05:23:10;;;;;;;30.20;21.52;;;19.90;99.90;;;;;;4142050;28;20129;-82
2021/06/05 05:25:12;;;;;;;35.70;23.48;;;19.80;99.90;;;;;;4140648;28;20045;-82
2021/06/05 05:27:12;;;;;;;37.08;24.73;;;19.80;99.90;;;;;;4140558;28;20033;-82
2021/06/05 05:29:13;;;;;;;45.00;26.50;;;19.80;99.90;;;;;;4143716;28;20566;-82
2021/06/05 05:31:18;;;;;;;46.10;27.88;;;19.70;99.90;;;;;;4143206;28;20026;-82
2021/06/05 05:33:20;;;;;;;55.08;33.53;;;19.70;99.90;;;;;;4139792;28;20043;-82
2021/06/05 05:35:21;;;;;;;45.58;26.00;;;19.60;99.90;;;;;;4144574;28;20102;-82
2021/06/05 05:37:22;;;;;;;53.15;31.00;;;19.60;99.90;;;;;;4118344;28;20534;-82
2021/06/05 05:39:22;;;;;;;47.08;28.88;;;19.70;99.90;;;;;;4142215;28;20077;-82
2021/06/05 05:41:25;;;;;;;52.03;30.77;;;19.60;99.90;;;;;;4139003;28;20045;-82
2021/06/05 05:43:26;;;;;;;56.97;31.75;;;19.60;99.90;;;;;;4143362;28;20050;-82
2021/06/05 05:45:26;;;;;;;46.22;26.58;;;19.60;99.90;;;;;;4142681;28;20072;-83
2021/06/05 05:47:27;;;;;;;49.40;27.67;;;19.60;99.90;;;;;;4124982;28;20054;-82
2021/06/05 05:49:28;;;;;;;44.53;26.95;;;19.60;99.90;;;;;;4128148;28;20049;-82
2021/06/05 05:51:29;;;;;;;44.25;25.85;;;19.60;99.90;;;;;;4139576;28;20056;-82
2021/06/05 05:53:31;;;;;;;47.25;27.23;;;19.60;99.90;;;;;;4140283;28;20061;-82
2021/06/05 05:55:31;;;;;;;41.00;25.25;;;19.60;99.90;;;;;;4143293;28;20056;-81
2021/06/05 05:57:32;;;;;;;43.47;25.98;;;19.60;99.90;;;;;;4144239;28;20038;-82
2021/06/05 05:59:33;;;;;;;46.35;26.85;;;19.60;99.90;;;;;;4142370;28;20076;-82
2021/06/05 06:01:34;;;;;;;37.70;23.38;;;19.60;99.90;;;;;;4144404;28;20482;-82
2021/06/05 06:03:35;;;;;;;42.20;24.02;;;19.60;99.90;;;;;;4143569;28;20034;-82
2021/06/05 06:05:36;;;;;;;38.17;23.88;;;19.60;99.90;;;;;;4146099;28;20026;-82
2021/06/05 06:07:38;;;;;;;48.08;28.27;;;19.60;99.90;;;;;;4139819;28;20042;-82
2021/06/05 06:09:38;;;;;;;50.63;28.35;;;19.60;99.90;;;;;;4142668;28;20128;-83
2021/06/05 06:11:43;;;;;;;48.80;28.60;;;19.60;99.90;;;;;;4140839;28;20042;-82
2021/06/05 06:13:44;;;;;;;48.33;28.05;;;19.60;99.90;;;;;;4139320;28;20084;-83
2021/06/05 06:15:45;;;;;;;47.72;28.67;;;19.60;99.90;;;;;;4126119;28;20506;-82
2021/06/05 06:17:45;;;;;;;44.45;26.70;;;19.60;99.90;;;;;;4138715;28;20418;-82
2021/06/05 06:19:47;;;;;;;43.38;27.50;;;19.60;99.90;;;;;;4138553;28;20044;-82
2021/06/05 06:21:48;;;;;;;52.30;28.43;;;19.60;99.90;;;;;;4136751;28;20041;-82
2021/06/05 06:23:50;;;;;;;47.85;28.67;;;19.60;99.90;;;;;;4123682;28;20277;-82
2021/06/05 06:25:52;;;;;;;40.28;24.98;;;19.50;99.90;;;;;;4138812;28;20247;-82
2021/06/05 06:27:53;;;;;;;44.97;27.70;;;19.60;99.90;;;;;;4145934;28;20033;-83
2021/06/05 06:29:53;;;;;;;39.83;25.05;;;19.60;99.90;;;;;;4124137;28;20328;-83
2021/06/05 06:31:54;;;;;;;38.92;24.73;;;19.70;99.90;;;;;;4140202;28;20033;-83
2021/06/05 06:33:55;;;;;;;44.60;25.70;;;19.70;99.90;;;;;;4140613;28;21615;-83
2021/06/05 06:35:56;;;;;;;43.45;26.40;;;19.70;99.90;;;;;;4146181;28;20045;-83
2021/06/05 06:37:57;;;;;;;43.88;26.13;;;19.70;99.90;;;;;;4141616;28;20038;-83
2021/06/05 06:39:58;;;;;;;43.90;26.60;;;19.70;99.90;;;;;;4125613;28;20102;-83
2021/06/05 06:41:59;;;;;;;35.80;23.25;;;19.70;99.90;;;;;;4122324;28;21548;-83
2021/06/05 06:44:02;;;;;;;41.97;24.67;;;19.70;99.90;;;;;;4141064;28;20042;-83
2021/06/05 06:46:10;;;;;;;38.53;24.45;;;19.70;99.90;;;;;;4125968;28;20038;-83
2021/06/05 06:48:11;;;;;;;39.28;23.40;;;19.70;99.90;;;;;;4123499;28;20046;-82
2021/06/05 06:50:15;;;;;;;36.38;22.80;;;19.70;99.90;;;;;;4127422;28;20061;-83
2021/06/05 06:52:15;;;;;;;39.33;24.40;;;19.70;99.90;;;;;;4130317;28;20327;-83
2021/06/05 06:54:17;;;;;;;35.42;23.27;;;19.70;99.90;;;;;;4124755;28;20100;-83
2021/06/05 06:56:19;;;;;;;45.30;25.42;;;19.70;99.90;;;;;;4129596;28;20569;-83
2021/06/05 06:58:20;;;;;;;42.00;24.45;;;19.70;99.90;;;;;;4129330;28;20042;-83
2021/06/05 07:00:29;;;;;;;46.17;26.67;;;19.70;99.90;;;;;;4125791;28;20049;-83
2021/06/05 07:02:29;;;;;;;47.33;27.20;;;19.70;99.90;;;;;;4126383;28;20034;-84
2021/06/05 07:04:30;;;;;;;42.60;25.33;;;19.70;99.90;;;;;;4147328;28;20112;-83
2021/06/05 07:06:31;;;;;;;46.88;26.48;;;19.60;99.90;;;;;;4131343;28;20026;-83
2021/06/05 07:08:35;;;;;;;44.10;26.27;;;19.70;99.90;;;;;;4127315;28;20106;-83
2021/06/05 07:10:37;;;;;;;50.25;28.70;;;19.70;99.90;;;;;;4141875;28;20041;-83
2021/06/05 07:12:38;;;;;;;49.95;28.75;;;19.60;99.90;;;;;;4132154;28;20313;-83
2021/06/05 07:14:39;;;;;;;48.40;26.88;;;19.60;99.90;;;;;;4143295;28;20045;-83
2021/06/05 07:16:41;;;;;;;45.50;26.05;;;19.60;99.90;;;;;;4129978;28;20046;-83
2021/06/05 07:18:42;;;;;;;47.38;26.00;;;19.60;99.90;;;;;;4125682;28;20038;-83
2021/06/05 07:20:49;;;;;;;49.38;27.42;;;19.60;99.90;;;;;;4130997;28;20058;-83
2021/06/05 07:22:51;;;;;;;47.78;27.77;;;19.60;99.90;;;;;;4146173;28;20033;-83
2021/06/05 07:24:51;;;;;;;52.30;29.55;;;19.60;99.90;;;;;;4146405;28;20030;-83
2021/06/05 07:26:52;;;;;;;53.55;28.60;;;19.70;99.90;;;;;;4128570;28;20026;-83
2021/06/05 07:28:56;;;;;;;49.75;26.92;;;19.60;99.90;;;;;;4145745;28;20060;-83
2021/06/05 07:30:58;;;;;;;47.45;24.60;;;19.60;99.90;;;;;;4125328;28;20395;-83
2021/06/05 07:32:59;;;;;;;53.10;27.38;;;19.70;99.90;;;;;;4143066;28;20453;-83
2021/06/05 07:34:59;;;;;;;53.30;28.67;;;19.70;99.90;;;;;;4128484;28;20036;-83
2021/06/05 07:37:20;;;;;;;48.78;27.15;;;19.70;99.90;;;;;;4146606;28;20083;-83
2021/06/05 07:39:25;;;;;;;53.00;28.45;;;19.70;99.90;;;;;;4144672;28;20609;-83
2021/06/05 07:41:26;;;;;;;49.67;28.10;;;19.70;99.90;;;;;;4127647;28;20046;-83
2021/06/05 07:43:28;;;;;;;51.83;29.27;;;19.70;99.90;;;;;;4126935;28;20502;-83
2021/06/05 07:45:29;;;;;;;41.70;25.67;;;19.70;99.90;;;;;;4126949;28;20031;-83
2021/06/05 07:47:30;;;;;;;43.20;25.80;;;19.60;99.90;;;;;;4139726;28;20034;-84
2021/06/05 07:49:37;;;;;;;35.88;21.92;;;19.60;99.90;;;;;;4144992;28;20107;-83
2021/06/05 07:51:37;;;;;;;30.60;19.60;;;19.60;99.90;;;;;;4129338;28;20023;-82
2021/06/05 07:53:38;;;;;;;32.65;19.85;;;19.60;99.90;;;;;;4147393;28;20049;-83
2021/06/05 07:55:39;;;;;;;36.80;21.33;;;19.70;99.90;;;;;;4129789;28;20057;-83
2021/06/05 07:57:40;;;;;;;34.28;20.67;;;19.70;99.90;;;;;;4137065;28;20121;-83
2021/06/05 07:59:41;;;;;;;33.70;21.77;;;19.70;99.90;;;;;;4150154;28;20193;-82
2021/06/05 08:01:42;;;;;;;45.70;27.08;;;19.70;99.90;;;;;;4145439;28;20081;-82
2021/06/05 08:03:42;;;;;;;33.60;22.17;;;19.70;99.90;;;;;;4128969;28;20307;-82
2021/06/05 08:05:44;;;;;;;38.65;23.52;;;19.70;99.90;;;;;;4123911;28;20364;-82
2021/06/05 08:07:45;;;;;;;35.85;22.85;;;19.70;99.90;;;;;;4145773;28;20042;-82
2021/06/05 08:09:45;;;;;;;34.63;21.33;;;19.70;99.90;;;;;;4143144;28;20390;-82
2021/06/05 08:11:46;;;;;;;36.83;23.77;;;19.70;99.90;;;;;;4141284;28;20101;-82
2021/06/05 08:13:46;;;;;;;38.05;23.67;;;19.80;99.90;;;;;;4126445;28;20026;-82
2021/06/05 08:15:50;;;;;;;35.50;21.55;;;19.80;99.90;;;;;;4141944;28;20482;-82
2021/06/05 08:17:51;;;;;;;41.72;25.77;;;19.80;99.90;;;;;;4138832;28;20309;-82
2021/06/05 08:19:52;;;;;;;38.05;23.58;;;19.70;99.90;;;;;;4132857;28;20856;-83
2021/06/05 08:21:52;;;;;;;36.85;23.27;;;19.70;99.90;;;;;;4126209;28;20031;-83
2021/06/05 08:23:53;;;;;;;30.70;20.38;;;19.70;99.90;;;;;;4126195;28;20035;-82
2021/06/05 08:25:54;;;;;;;36.40;24.25;;;19.80;99.90;;;;;;4128065;28;20039;-82
2021/06/05 08:27:55;;;;;;;36.63;22.17;;;19.80;99.90;;;;;;4141981;28;20139;-82
2021/06/05 08:29:55;;;;;;;39.33;24.20;;;19.80;99.90;;;;;;4127830;28;20045;-82
2021/06/05 08:31:56;;;;;;;36.55;22.88;;;19.80;99.90;;;;;;4142906;28;20038;-82
2021/06/05 08:33:57;;;;;;;36.60;23.80;;;19.80;99.90;;;;;;4143938;28;20057;-82
2021/06/05 08:35:58;;;;;;;32.30;21.85;;;19.80;99.90;;;;;;4125549;28;20053;-82
2021/06/05 08:37:59;;;;;;;33.10;21.52;;;19.80;99.90;;;;;;4143624;28;20060;-82
2021/06/05 08:39:59;;;;;;;36.30;23.67;;;19.90;99.90;;;;;;4142001;28;20052;-82
2021/06/05 08:42:03;;;;;;;38.28;25.17;;;19.90;99.90;;;;;;4142111;28;20046;-82
2021/06/05 08:44:12;;;;;;;34.95;22.98;;;19.90;99.90;;;;;;4125677;28;20518;-82
2021/06/05 08:46:21;;;;;;;29.88;19.42;;;19.90;99.90;;;;;;4139018;28;20285;-82
2021/06/05 08:48:22;;;;;;;29.38;20.05;;;19.90;99.90;;;;;;4139843;28;20046;-82
2021/06/05 08:50:30;;;;;;;30.52;20.73;;;19.90;99.90;;;;;;4124252;28;20154;-82
2021/06/05 08:52:50;;;;;;;30.17;20.08;;;19.90;99.90;;;;;;4141493;28;20036;-82
2021/06/05 08:55:20;;;;;;;30.95;19.98;;;20.00;99.90;;;;;;4141344;28;20045;-82
2021/06/05 08:57:44;;;;;;;32.90;21.52;;;20.00;99.90;;;;;;4122393;28;20042;-82
2021/06/05 08:59:47;;;;;;;31.05;20.55;;;20.00;99.90;;;;;;4126110;28;20074;-82
2021/06/05 09:01:48;;;;;;;27.73;19.58;;;20.00;99.90;;;;;;4126298;28;20031;-82
2021/06/05 09:04:15;;;;;;;30.75;20.83;;;20.00;99.90;;;;;;4130231;28;20061;-82
2021/06/05 09:06:24;;;;;;;33.55;22.23;;;20.00;99.90;;;;;;4146318;28;20117;-82
2021/06/05 09:08:25;;;;;;;32.05;21.88;;;20.00;99.90;;;;;;4145360;28;20088;-82
2021/06/05 09:10:28;;;;;;;28.08;19.40;;;20.00;99.90;;;;;;4144570;28;20461;-83
2021/06/05 09:12:29;;;;;;;37.17;23.98;;;20.00;99.90;;;;;;4147659;28;20033;-82
2021/06/05 09:14:29;;;;;;;32.45;21.60;;;20.00;99.90;;;;;;4139805;28;20082;-82
2021/06/05 09:16:41;;;;;;;31.67;20.13;;;20.00;99.90;;;;;;4144829;28;20233;-82
2021/06/05 09:18:55;;;;;;;38.13;24.10;;;20.10;99.90;;;;;;4123803;28;20035;-82
2021/06/05 09:21:05;;;;;;;36.95;23.38;;;20.10;99.90;;;;;;4127185;28;20044;-82
2021/06/05 09:23:22;;;;;;;31.27;21.55;;;20.10;99.90;;;;;;4144327;28;20076;-82
2021/06/05 09:25:39;;;;;;;32.85;21.38;;;20.20;99.90;;;;;;4143002;28;20419;-82
2021/06/05 09:27:40;;;;;;;35.85;24.73;;;20.20;99.90;;;;;;4145893;28;20486;-82
2021/06/05 09:29:48;;;;;;;34.80;23.10;;;20.20;99.90;;;;;;4141998;28;20037;-82
2021/06/05 09:31:55;;;;;;;40.90;23.80;;;20.20;99.90;;;;;;4141074;28;20026;-82
2021/06/05 09:33:55;;;;;;;40.72;24.58;;;20.20;99.90;;;;;;4146068;28;20458;-82
2021/06/05 09:36:30;;;;;;;41.72;26.17;;;20.20;99.90;;;;;;4142337;28;20087;-82
2021/06/05 09:38:38;;;;;;;43.00;26.20;;;20.20;99.90;;;;;;4142049;28;20049;-82
2021/06/05 09:40:38;;;;;;;34.95;22.10;;;20.20;99.90;;;;;;4143389;28;20524;-82
2021/06/05 09:42:42;;;;;;;33.17;22.67;;;20.20;99.90;;;;;;4145299;28;20166;-83
2021/06/05 09:44:47;;;;;;;43.47;26.92;;;20.20;99.90;;;;;;4138626;28;20046;-82
2021/06/05 09:47:01;;;;;;;40.03;25.02;;;20.20;99.90;;;;;;4145358;28;20026;-82
2021/06/05 09:49:18;;;;;;;40.95;25.05;;;20.20;99.90;;;;;;4126993;28;20444;-82
2021/06/05 09:51:38;;;;;;;41.30;25.90;;;20.20;99.90;;;;;;4142832;28;20067;-82
2021/06/05 09:53:39;;;;;;;40.75;25.98;;;20.20;99.90;;;;;;4144571;28;20641;-82
2021/06/05 09:55:41;;;;;;;39.60;25.52;;;20.10;99.90;;;;;;4129508;28;20034;-82
2021/06/05 09:57:45;;;;;;;41.13;27.20;;;20.10;99.90;;;;;;4142675;28;20382;-82
2021/06/05 10:00:07;;;;;;;38.90;25.70;;;20.20;99.90;;;;;;4143020;28;20034;-83
2021/06/05 10:02:20;;;;;;;35.85;24.17;;;20.20;99.90;;;;;;4124374;28;20458;-83
2021/06/05 10:04:22;;;;;;;36.08;23.55;;;20.20;99.90;;;;;;4140049;28;20038;-82
2021/06/05 10:06:31;;;;;;;38.13;24.70;;;20.20;99.90;;;;;;4141616;28;20040;-82
2021/06/05 10:08:37;;;;;;;36.80;23.92;;;20.20;99.90;;;;;;4141685;28;20043;-82
2021/06/05 10:10:40;;;;;;;34.30;21.92;;;20.20;99.90;;;;;;4141920;28;21082;-82
2021/06/05 10:12:43;;;;;;;31.40;21.20;;;20.20;99.90;;;;;;4141168;28;20029;-82
2021/06/05 10:14:56;;;;;;;34.72;24.60;;;20.30;99.90;;;;;;4143270;28;20052;-82
2021/06/05 10:17:01;;;;;;;34.53;24.42;;;20.30;99.90;;;;;;4143485;28;20049;-82
2021/06/05 10:19:18;;;;;;;32.90;23.02;;;20.30;99.90;;;;;;4141610;28;20080;-82
2021/06/05 10:21:30;;;;;;;40.35;27.20;;;20.40;99.90;;;;;;4144471;28;20034;-82
2021/06/05 10:23:39;;;;;;;42.10;28.45;;;20.30;99.90;;;;;;4148198;28;20044;-83
2021/06/05 10:25:45;;;;;;;34.63;23.75;;;20.30;99.90;;;;;;4128307;28;20027;-83
2021/06/05 10:27:47;;;;;;;35.45;23.67;;;20.30;99.90;;;;;;4145708;28;20030;-82